createdAt,value
2024-05-09T00:01:07.604Z,10.89
2024-05-09T00:03:47.221Z,10.85
2024-05-09T00:06:19.107Z,11.29
2024-05-09T00:08:47.585Z,11.24
2024-05-09T00:11:15.174Z,11.22
2024-05-09T00:13:42.695Z,11.13
2024-05-09T00:16:13.353Z,10.95
2024-05-09T00:18:40.837Z,11.16
2024-05-09T00:21:14.951Z,11.08
2024-05-09T00:23:42.350Z,10.86
2024-05-09T00:26:24.936Z,11.21
2024-05-09T00:28:52.238Z,10.81
2024-05-09T00:31:19.521Z,10.89
2024-05-09T00:33:46.547Z,11.03
2024-05-09T00:36:13.535Z,11.07
2024-05-09T00:38:40.483Z,10.88
2024-05-09T00:41:07.533Z,10.82
2024-05-09T00:43:34.424Z,10.91
2024-05-09T00:46:01.632Z,10.88
2024-05-09T00:48:37.732Z,10.93
2024-05-09T00:51:06.745Z,10.88
2024-05-09T00:53:54.781Z,10.57
2024-05-09T00:56:26.971Z,10.50
2024-05-09T00:58:57.789Z,10.40
2024-05-09T01:01:36.675Z,10.49
2024-05-09T01:04:05.861Z,10.39
2024-05-09T01:06:37.039Z,10.26
2024-05-09T01:09:15.911Z,10.22
2024-05-09T01:11:44.879Z,10.15
2024-05-09T01:14:14.566Z,10.37
2024-05-09T01:16:45.531Z,10.25
2024-05-09T01:19:26.566Z,10.14
2024-05-09T01:21:53.653Z,10.05
2024-05-09T01:24:23.551Z,9.97
2024-05-09T01:26:53.686Z,9.83
2024-05-09T01:29:22.259Z,9.78
2024-05-09T01:31:53.207Z,9.80
2024-05-09T01:34:20.704Z,9.78
2024-05-09T01:36:49.436Z,9.71
2024-05-09T01:39:46.968Z,9.71
2024-05-09T01:42:21.875Z,9.61
2024-05-09T01:44:54.168Z,9.75
2024-05-09T01:47:24.555Z,9.76
2024-05-09T01:50:00.017Z,9.65
2024-05-09T01:52:34.520Z,9.62
2024-05-09T01:55:06.994Z,9.61
2024-05-09T01:57:35.390Z,9.70
2024-05-09T02:00:10.302Z,9.64
2024-05-09T02:02:42.734Z,9.58
2024-05-09T02:05:15.999Z,9.66
2024-05-09T02:07:48.300Z,9.61
2024-05-09T02:10:23.470Z,9.67
2024-05-09T02:13:06.327Z,9.65
2024-05-09T02:15:33.378Z,9.55
2024-05-09T02:18:03.250Z,9.56
2024-05-09T02:20:35.826Z,9.64
2024-05-09T02:23:08.031Z,9.59
2024-05-09T02:25:46.492Z,9.63
2024-05-09T02:28:14.278Z,9.65
2024-05-09T02:30:43.518Z,9.68
2024-05-09T02:33:13.991Z,9.57
2024-05-09T02:35:44.103Z,9.60
2024-05-09T02:38:12.305Z,9.62
2024-05-09T02:40:48.617Z,9.59
2024-05-09T02:43:16.050Z,9.54
2024-05-09T02:45:50.413Z,9.56
2024-05-09T02:48:18.996Z,9.49
2024-05-09T02:50:48.317Z,9.56
2024-05-09T02:53:15.421Z,9.44
2024-05-09T02:55:48.872Z,9.43
2024-05-09T02:58:19.310Z,9.35
2024-05-09T03:00:52.445Z,9.29
2024-05-09T03:03:31.051Z,9.22
2024-05-09T03:06:01.455Z,9.31
2024-05-09T03:08:33.885Z,9.32
2024-05-09T03:11:06.102Z,9.35
2024-05-09T03:13:41.591Z,9.40
2024-05-09T03:16:11.708Z,9.41
2024-05-09T03:18:39.178Z,9.39
2024-05-09T03:21:06.765Z,9.42
2024-05-09T03:23:40.653Z,9.67
2024-05-09T03:26:15.071Z,9.63
2024-05-09T03:28:44.751Z,9.64
2024-05-09T03:31:21.313Z,9.31
2024-05-09T03:33:58.965Z,9.84
2024-05-09T03:36:31.379Z,10.36
2024-05-09T03:39:13.152Z,10.69
2024-05-09T03:41:46.609Z,10.75
2024-05-09T03:44:13.981Z,10.83
2024-05-09T03:46:53.131Z,10.42
2024-05-09T03:49:27.696Z,10.59
2024-05-09T03:51:55.135Z,10.11
2024-05-09T03:54:48.092Z,10.40
2024-05-09T03:57:15.877Z,10.44
2024-05-09T03:59:43.113Z,10.30
2024-05-09T04:02:10.508Z,10.18
2024-05-09T04:04:43.337Z,10.22
2024-05-09T04:07:16.108Z,10.59
2024-05-09T04:09:47.279Z,10.96
2024-05-09T04:12:14.789Z,10.69
2024-05-09T04:14:44.629Z,10.88
2024-05-09T04:17:26.327Z,10.97
2024-05-09T04:19:53.953Z,10.84
2024-05-09T04:22:24.709Z,10.57
2024-05-09T04:25:00.899Z,10.73
2024-05-09T04:27:31.241Z,10.75
2024-05-09T04:32:50.504Z,10.35
2024-05-09T04:35:23.115Z,10.43
2024-05-09T04:37:50.148Z,10.70
2024-05-09T04:40:28.346Z,10.52
2024-05-09T04:43:00.418Z,9.91
2024-05-09T04:45:27.605Z,9.91
2024-05-09T04:48:02.854Z,9.87
2024-05-09T04:50:38.304Z,9.97
2024-05-09T04:53:11.529Z,10.03
2024-05-09T04:55:39.422Z,9.93
2024-05-09T04:58:09.846Z,9.99
2024-05-09T05:00:42.403Z,9.79
2024-05-09T05:03:34.934Z,9.96
2024-05-09T05:06:02.057Z,9.90
2024-05-09T05:08:29.152Z,9.65
2024-05-09T05:11:07.083Z,9.84
2024-05-09T05:13:38.650Z,9.71
2024-05-09T05:16:09.906Z,10.08
2024-05-09T05:18:42.471Z,9.81
2024-05-09T05:21:09.525Z,9.90
2024-05-09T05:23:42.947Z,9.96
2024-05-09T05:26:14.164Z,10.03
2024-05-09T05:29:00.048Z,10.02
2024-05-09T05:31:33.315Z,10.16
2024-05-09T05:34:03.283Z,10.37
2024-05-09T05:36:37.097Z,10.21
2024-05-09T05:39:10.284Z,10.24
2024-05-09T05:41:37.586Z,10.17
2024-05-09T05:44:14.891Z,10.32
2024-05-09T05:46:45.133Z,10.20
2024-05-09T05:49:12.617Z,10.22
2024-05-09T05:51:55.225Z,10.68
2024-05-09T05:54:26.867Z,10.69
2024-05-09T05:56:59.871Z,10.96
2024-05-09T05:59:27.327Z,11.03
2024-05-09T06:02:06.619Z,11.08
2024-05-09T06:04:34.043Z,10.73
2024-05-09T06:07:01.307Z,10.91
2024-05-09T06:09:31.571Z,11.67
2024-05-09T06:12:05.247Z,12.29
2024-05-09T06:14:32.675Z,12.91
2024-05-09T06:17:01.808Z,13.24
2024-05-09T06:19:33.069Z,15.22
2024-05-09T06:22:03.312Z,17.05
2024-05-09T06:24:38.935Z,16.52
2024-05-09T06:27:13.689Z,16.36
2024-05-09T06:29:41.043Z,16.30
2024-05-09T06:32:08.445Z,17.48
2024-05-09T06:34:38.365Z,18.88
2024-05-09T06:37:11.150Z,17.56
2024-05-09T06:39:38.441Z,17.14
2024-05-09T06:42:05.716Z,17.46
2024-05-09T06:44:33.061Z,17.82
2024-05-09T06:47:00.528Z,16.88
2024-05-09T06:49:29.970Z,17.43
2024-05-09T06:52:00.000Z,16.17
2024-05-09T06:54:29.698Z,19.69
2024-05-09T06:56:59.504Z,22.47
2024-05-09T07:02:35.199Z,22.82
2024-05-09T07:05:08.061Z,21.06
2024-05-09T07:07:35.422Z,19.49
2024-05-09T07:10:03.862Z,18.72
2024-05-09T07:12:32.393Z,18.92
2024-05-09T07:17:47.782Z,21.63
2024-05-09T07:20:23.491Z,23.30
2024-05-09T07:23:02.410Z,21.48
2024-05-09T07:25:30.314Z,20.19
2024-05-09T07:28:00.040Z,21.46
2024-05-09T07:30:36.144Z,19.16
2024-05-09T07:33:04.013Z,20.96
2024-05-09T07:35:43.336Z,19.27
2024-05-09T07:38:18.157Z,20.38
2024-05-09T07:40:45.219Z,20.71
2024-05-09T07:43:12.486Z,18.99
2024-05-09T07:45:50.802Z,18.15
2024-05-09T07:50:00.440Z,20.99
2024-05-09T07:53:50.777Z,19.67
2024-05-09T07:56:22.577Z,21.04
2024-05-09T07:58:53.203Z,22.14
2024-05-09T08:01:30.508Z,22.93
2024-05-09T08:04:04.168Z,23.54
2024-05-09T08:06:44.315Z,25.34
2024-05-09T08:09:16.741Z,22.96
2024-05-09T08:11:46.433Z,20.66
2024-05-09T08:14:16.302Z,21.75
2024-05-09T08:16:43.148Z,21.92
2024-05-09T08:19:15.275Z,22.47
2024-05-09T08:21:43.379Z,21.02
2024-05-09T08:24:10.279Z,19.64
2024-05-09T08:26:44.181Z,20.22
2024-05-09T08:29:11.047Z,20.02
2024-05-09T08:31:43.970Z,20.80
2024-05-09T08:34:23.392Z,23.31
2024-05-09T08:36:54.221Z,24.60
2024-05-09T08:39:27.279Z,24.14
2024-05-09T08:41:57.732Z,24.07
2024-05-09T08:44:25.062Z,24.35
2024-05-09T08:46:52.388Z,20.45
2024-05-09T08:49:21.413Z,20.07
2024-05-09T08:51:59.585Z,19.12
2024-05-09T08:57:18.455Z,19.51
2024-05-09T08:59:48.945Z,21.89
2024-05-09T09:02:16.599Z,23.08
2024-05-09T09:04:59.271Z,21.30
2024-05-09T09:07:36.338Z,23.39
2024-05-09T09:10:12.897Z,23.01
2024-05-09T09:12:42.216Z,21.06
2024-05-09T09:15:11.553Z,22.58
2024-05-09T09:17:50.455Z,20.86
2024-05-09T09:20:23.240Z,21.68
2024-05-09T09:25:45.216Z,19.48
2024-05-09T09:28:18.459Z,20.70
2024-05-09T09:30:48.439Z,20.39
2024-05-09T09:33:20.469Z,20.32
2024-05-09T09:35:47.406Z,20.47
2024-05-09T09:38:27.571Z,20.57
2024-05-09T09:40:56.330Z,20.34
2024-05-09T09:43:36.370Z,20.96
2024-05-09T09:46:11.577Z,20.57
2024-05-09T09:48:40.653Z,20.31
2024-05-09T09:51:17.402Z,20.09
2024-05-09T09:53:47.982Z,20.36
2024-05-09T09:56:17.235Z,20.46
2024-05-09T09:58:46.588Z,20.50
2024-05-09T10:01:35.976Z,20.85
2024-05-09T10:04:10.637Z,21.34
2024-05-09T10:06:50.451Z,20.63
2024-05-09T10:09:33.554Z,20.70
2024-05-09T10:12:20.249Z,19.84
2024-05-09T10:15:06.110Z,19.45
2024-05-09T10:17:36.499Z,18.98
2024-05-09T10:20:21.343Z,19.41
2024-05-09T10:23:01.123Z,19.80
2024-05-09T10:25:43.750Z,20.03
2024-05-09T10:28:13.411Z,20.14
2024-05-09T10:31:14.176Z,19.71
2024-05-09T10:33:55.664Z,19.40
2024-05-09T10:36:27.719Z,19.64
2024-05-09T10:38:55.343Z,18.87
2024-05-09T10:41:32.339Z,19.75
2024-05-09T10:44:00.496Z,18.03
2024-05-09T10:46:27.403Z,18.65
2024-05-09T10:49:08.011Z,19.35
2024-05-09T10:51:36.026Z,19.53
2024-05-09T10:54:09.158Z,19.21
2024-05-09T10:56:40.200Z,19.61
2024-05-09T10:59:07.007Z,19.81
2024-05-09T11:01:34.308Z,18.75
2024-05-09T11:04:08.361Z,18.62
2024-05-09T11:06:55.303Z,18.78
2024-05-09T11:09:25.619Z,19.32
2024-05-09T11:11:55.589Z,18.81
2024-05-09T11:14:25.380Z,19.04
2024-05-09T11:17:05.603Z,18.45
2024-05-09T11:19:41.467Z,18.28
2024-05-09T11:22:11.329Z,18.42
2024-05-09T11:24:41.331Z,18.31
2024-05-09T11:27:32.831Z,18.96
2024-05-09T11:30:04.251Z,19.46
2024-05-09T11:32:31.801Z,18.50
2024-05-09T11:35:10.121Z,17.96
2024-05-09T11:37:40.370Z,17.76
2024-05-09T11:40:16.991Z,18.26
2024-05-09T11:42:53.229Z,18.09
2024-05-09T11:45:20.831Z,17.92
2024-05-09T11:47:57.596Z,17.93
2024-05-09T11:50:36.357Z,18.25
2024-05-09T11:53:09.265Z,18.46
2024-05-09T11:55:38.777Z,19.47
2024-05-09T11:58:05.866Z,18.93
2024-05-09T12:00:39.901Z,18.73
2024-05-09T12:03:11.617Z,18.85
2024-05-09T12:05:40.686Z,18.88
2024-05-09T12:08:07.853Z,18.09
2024-05-09T12:10:55.196Z,18.23
2024-05-09T12:13:24.633Z,18.03
2024-05-09T12:16:09.667Z,17.99
2024-05-09T12:18:39.256Z,18.47
2024-05-09T12:21:07.848Z,17.82
2024-05-09T12:23:40.410Z,18.09
2024-05-09T12:26:09.907Z,18.89
2024-05-09T12:28:43.143Z,19.07
2024-05-09T12:31:11.767Z,19.17
2024-05-09T12:33:44.211Z,18.37
2024-05-09T12:36:15.769Z,18.69
2024-05-09T12:39:06.376Z,18.78
2024-05-09T12:41:33.265Z,19.01
2024-05-09T12:44:03.113Z,19.43
2024-05-09T12:46:35.225Z,18.91
2024-05-09T12:49:05.171Z,18.69
2024-05-09T12:51:36.034Z,18.97
2024-05-09T12:54:04.680Z,18.78
2024-05-09T12:56:32.105Z,18.31
2024-05-09T12:59:04.740Z,18.71
2024-05-09T13:01:36.318Z,19.05
2024-05-09T13:04:03.946Z,18.47
2024-05-09T13:06:31.534Z,18.43
2024-05-09T13:09:02.777Z,18.81
2024-05-09T13:11:32.357Z,19.43
2024-05-09T13:14:02.433Z,18.70
2024-05-09T13:16:32.724Z,18.84
2024-05-09T13:18:59.805Z,18.86
2024-05-09T13:21:31.463Z,18.63
2024-05-09T13:24:01.204Z,18.90
2024-05-09T13:26:30.368Z,18.58
2024-05-09T13:28:59.652Z,18.46
2024-05-09T13:31:26.594Z,18.00
2024-05-09T13:33:59.275Z,18.36
2024-05-09T13:36:26.325Z,18.34
2024-05-09T13:38:55.278Z,18.08
2024-05-09T13:41:24.664Z,18.72
2024-05-09T13:43:51.498Z,18.98
2024-05-09T13:46:22.399Z,19.32
2024-05-09T13:48:52.009Z,19.26
2024-05-09T13:51:18.991Z,19.69
2024-05-09T13:53:53.435Z,19.63
2024-05-09T13:56:22.260Z,19.72
2024-05-09T13:59:03.301Z,18.44
2024-05-09T14:01:33.346Z,18.59
2024-05-09T14:04:03.064Z,18.27
2024-05-09T14:06:30.217Z,18.26
2024-05-09T14:08:59.819Z,18.48
2024-05-09T14:11:29.716Z,18.54
2024-05-09T14:14:05.694Z,18.57
2024-05-09T14:16:42.009Z,18.63
2024-05-09T14:19:14.898Z,18.65
2024-05-09T14:21:44.146Z,19.02
2024-05-09T14:24:11.454Z,18.67
2024-05-09T14:26:41.208Z,18.93
2024-05-09T14:29:14.926Z,19.20
2024-05-09T14:31:42.209Z,18.40
2024-05-09T14:34:09.921Z,18.41
2024-05-09T14:36:37.430Z,18.95
2024-05-09T14:39:10.082Z,19.42
2024-05-09T14:41:39.981Z,19.01
2024-05-09T14:44:09.461Z,18.75
2024-05-09T14:46:45.952Z,18.67
2024-05-09T14:49:28.408Z,18.49
2024-05-09T14:52:05.949Z,18.85
2024-05-09T14:54:33.320Z,18.44
2024-05-09T14:57:07.313Z,18.70
2024-05-09T14:59:34.506Z,18.45
2024-05-09T15:02:04.450Z,18.36
2024-05-09T15:04:38.297Z,18.59
2024-05-09T15:07:15.148Z,18.61
2024-05-09T15:10:26.534Z,18.53
2024-05-09T15:13:08.110Z,18.85
2024-05-09T15:15:40.486Z,18.10
2024-05-09T15:18:08.416Z,18.26
2024-05-09T15:20:37.399Z,18.43
2024-05-09T15:23:08.316Z,18.74
2024-05-09T15:25:36.898Z,19.08
2024-05-09T15:28:15.656Z,19.37
2024-05-09T15:30:47.791Z,18.59
2024-05-09T15:33:18.208Z,18.57
2024-05-09T15:36:00.862Z,18.57
2024-05-09T15:38:29.799Z,18.40
2024-05-09T15:41:05.176Z,18.12
2024-05-09T15:43:34.839Z,18.33
2024-05-09T15:46:17.410Z,17.98
2024-05-09T15:48:47.240Z,18.26
2024-05-09T15:51:17.076Z,18.29
2024-05-09T15:53:47.520Z,18.75
2024-05-09T15:56:17.570Z,18.41
2024-05-09T15:58:50.919Z,19.04
2024-05-09T16:01:18.378Z,18.08
2024-05-09T16:03:45.662Z,17.99
2024-05-09T16:06:25.716Z,18.05
2024-05-09T16:11:41.386Z,18.39
2024-05-09T16:14:15.891Z,18.49
2024-05-09T16:16:43.460Z,18.80
2024-05-09T16:19:10.947Z,18.86
2024-05-09T16:21:38.204Z,18.42
2024-05-09T16:24:05.376Z,18.31
2024-05-09T16:26:52.827Z,18.44
2024-05-09T16:29:38.971Z,18.40
2024-05-09T16:32:08.976Z,17.91
2024-05-09T16:34:41.705Z,17.76
2024-05-09T16:37:20.677Z,17.96
2024-05-09T16:39:47.662Z,18.15
2024-05-09T17:18:30.908Z,17.67
2024-05-09T17:21:07.690Z,17.65
2024-05-09T17:23:53.268Z,17.67
2024-05-09T17:26:21.976Z,18.01
2024-05-09T17:28:50.900Z,17.77
2024-05-09T17:31:18.432Z,17.53
2024-05-09T17:33:57.690Z,17.47
2024-05-09T17:36:27.589Z,17.38
2024-05-09T17:39:00.261Z,17.38
2024-05-09T17:41:34.774Z,17.54
2024-05-09T17:44:06.460Z,17.41
2024-05-09T17:49:33.193Z,17.37
2024-05-09T17:52:05.210Z,17.13
2024-05-09T17:54:32.136Z,17.07
2024-05-09T17:57:23.833Z,17.19
2024-05-09T17:59:53.429Z,17.17
2024-05-09T18:02:22.811Z,17.30
2024-05-09T18:04:59.130Z,17.43
2024-05-09T18:10:25.457Z,17.37
2024-05-09T18:16:48.121Z,16.89
2024-05-09T18:19:35.373Z,16.59
2024-05-09T18:22:02.443Z,16.45
2024-05-09T18:24:47.289Z,16.50
2024-05-09T18:27:22.130Z,16.72
2024-05-09T18:29:53.611Z,16.53
2024-05-09T18:32:21.327Z,16.38
2024-05-09T18:34:51.253Z,16.56
2024-05-09T18:37:35.400Z,16.64
2024-05-09T18:40:12.176Z,16.34
2024-05-09T18:43:35.111Z,16.15
2024-05-09T18:46:11.809Z,16.10
2024-05-09T18:48:41.581Z,15.86
2024-05-09T18:51:10.858Z,15.91
2024-05-09T18:53:38.082Z,15.67
2024-05-09T18:56:06.176Z,15.79
2024-05-09T18:59:26.771Z,15.82
2024-05-09T19:11:36.645Z,15.41
2024-05-09T19:21:54.054Z,15.34
2024-05-09T19:24:21.456Z,15.19
2024-05-09T19:26:57.402Z,15.30
2024-05-09T19:29:24.303Z,15.18
2024-05-09T19:31:51.361Z,15.23
2024-05-09T19:34:21.046Z,15.10
2024-05-09T19:36:48.387Z,15.01
2024-05-09T19:39:23.767Z,15.01
2024-05-09T19:41:54.219Z,14.92
2024-05-09T19:44:21.236Z,15.07
2024-05-09T19:46:59.416Z,14.93
2024-05-09T19:49:36.780Z,15.01
2024-05-09T19:52:08.259Z,14.93
2024-05-09T19:54:51.610Z,15.00
2024-05-09T19:57:25.710Z,14.94
2024-05-09T20:00:12.050Z,14.83
2024-05-09T20:02:57.428Z,14.81
2024-05-09T20:17:17.915Z,14.67
2024-05-09T20:19:27.237Z,14.74
2024-05-09T20:21:54.560Z,14.65
2024-05-09T20:28:25.002Z,14.53
2024-05-09T20:45:36.660Z,14.50
2024-05-09T20:48:12.957Z,14.70
2024-05-09T20:50:53.286Z,14.69
2024-05-09T20:54:14.948Z,14.41
2024-05-09T20:56:51.945Z,14.42
2024-05-09T20:59:21.248Z,14.36
2024-05-09T21:01:56.412Z,14.53
2024-05-09T21:04:23.827Z,14.34
2024-05-09T21:06:57.813Z,14.31
2024-05-09T21:09:31.622Z,14.25
2024-05-09T21:12:00.935Z,14.36
2024-05-09T21:14:30.353Z,14.26
2024-05-09T21:16:59.738Z,14.18
2024-05-09T21:22:58.198Z,14.13
2024-05-09T21:25:27.501Z,14.12
2024-05-09T21:28:05.492Z,14.06
2024-05-09T21:30:47.748Z,14.14
2024-05-09T21:33:19.285Z,14.05
2024-05-09T21:35:46.691Z,13.99
2024-05-09T21:38:16.996Z,14.13
2024-05-09T21:40:45.917Z,13.93
2024-05-09T21:43:15.901Z,14.05
2024-05-09T21:45:48.481Z,14.19
2024-05-09T21:48:15.500Z,14.12
2024-05-09T21:50:48.598Z,14.02
2024-05-09T21:53:18.705Z,14.21
2024-05-09T21:55:46.843Z,13.85
2024-05-09T21:58:14.484Z,14.00
2024-05-09T22:00:42.346Z,14.52
2024-05-09T22:03:10.721Z,14.22
2024-05-09T22:05:39.786Z,14.77
2024-05-09T22:08:14.372Z,14.61
2024-05-09T22:10:41.562Z,15.07
2024-05-09T22:13:10.990Z,15.13
2024-05-09T22:15:40.402Z,15.32
2024-05-09T22:18:09.155Z,15.33
2024-05-09T22:20:44.815Z,15.23
2024-05-09T22:23:16.025Z,15.56
2024-05-09T22:25:43.026Z,15.58
2024-05-09T22:28:19.215Z,15.66
2024-05-09T22:30:47.160Z,15.41
2024-05-09T22:33:17.110Z,15.30
2024-05-09T22:35:44.119Z,15.08
2024-05-09T22:38:15.392Z,15.19
2024-05-09T22:40:49.198Z,15.01
2024-05-09T22:43:26.158Z,14.35
2024-05-09T22:45:59.436Z,13.67
2024-05-09T22:48:26.989Z,13.63
2024-05-09T22:50:56.959Z,13.47
2024-05-09T22:53:25.302Z,13.37
2024-05-09T22:55:53.667Z,13.43
2024-05-09T22:58:21.281Z,13.57
2024-05-09T23:11:12.386Z,13.67
2024-05-09T23:13:39.923Z,13.54
2024-05-09T23:16:25.618Z,14.09
2024-05-09T23:18:53.136Z,14.12
2024-05-09T23:21:20.515Z,14.54
2024-05-09T23:23:47.781Z,14.50
2024-05-09T23:29:02.572Z,13.90
2024-05-09T23:31:30.213Z,13.91
2024-05-09T23:34:00.285Z,14.05
2024-05-09T23:36:28.064Z,14.13
2024-05-09T23:38:55.399Z,14.35
2024-05-09T23:41:25.568Z,14.69
2024-05-09T23:43:55.551Z,14.42
2024-05-09T23:49:12.520Z,14.01
2024-05-09T23:51:39.935Z,13.47
2024-05-09T23:54:07.258Z,13.66
2024-05-09T23:56:34.506Z,13.56
2024-05-09T23:59:04.785Z,13.54
